Matara, Argentina
Current Conditions -  °F | °C
As of 2:00 PM on Friday 21 Nov 2014 (Local Time) from SANT Reporting Station
Broken Clouds Broken Clouds  
Wind Chill: 19°   Ceiling: 1000
Heat Index: 19°   Visibility: 5mi
Dew Point: 16°   Wind: 5mph
Humidity: 83%   Direction: 90°E
Pressure: 30"   Gusts: NA
Location:  28.2°S, 63.14°W
Report Text: SANT 211700Z 09004KT 8000 BKN010 BKN04019/16 Q1016
Loading
Personal Weather Stations






























Interactive Weather Map New forecast layout! Learn more

10-Day Weather Forecast

Advertisements
Track Severe Weather on mobile